Time;durP1;ratioP1;P1;durP2;ratioP2;P2;SDS_P1;SDS_P2;PMS_P1;PMS_P2;Temp;Humidity;BMP_temperature;BMP_pressure;BME280_temperature;BME280_humidity;BME280_pressure;Samples;Min_cycle;Max_cycle;Signal;HPM_P1;HPM_P2
2022/06/03 00:00:32;;;;;;;3.60;2.25;;;19.50;99.90;;;;;;7391662;19;20138;-74
2022/06/03 00:03:36;;;;;;;2.92;1.80;;;19.30;99.90;;;;;;7388067;19;20142;-74
2022/06/03 00:06:20;;;;;;;3.38;2.20;;;18.70;99.90;;;;;;7386319;19;20142;-74
2022/06/03 00:09:04;;;;;;;3.83;2.78;;;18.30;99.90;;;;;;7388663;19;20141;-74
2022/06/03 00:11:54;;;;;;;2.83;2.42;;;18.40;99.90;;;;;;7388554;19;20154;-74
2022/06/03 00:14:38;;;;;;;3.15;2.22;;;18.50;99.90;;;;;;7388675;19;20192;-74
2022/06/03 00:17:18;;;;;;;3.17;2.53;;;18.70;99.90;;;;;;7387836;19;20456;-74
2022/06/03 00:19:58;;;;;;;4.30;2.22;;;18.70;99.90;;;;;;7388464;19;20570;-74
2022/06/03 00:22:43;;;;;;;3.30;2.22;;;18.40;99.90;;;;;;7388214;19;20131;-74
2022/06/03 00:25:24;;;;;;;3.10;2.50;;;18.30;99.90;;;;;;7386227;19;20506;-74
2022/06/03 00:28:08;;;;;;;3.65;2.00;;;18.40;99.90;;;;;;7388107;19;20135;-74
2022/06/03 00:30:49;;;;;;;4.18;2.10;;;18.70;99.90;;;;;;7386538;19;20142;-73
2022/06/03 00:33:28;;;;;;;3.25;2.30;;;18.80;99.90;;;;;;7389642;19;20139;-74
2022/06/03 00:36:13;;;;;;;3.90;2.35;;;18.70;99.90;;;;;;7389399;19;20146;-74
2022/06/03 00:39:03;;;;;;;3.47;2.20;;;18.50;99.90;;;;;;7385882;19;20166;-74
2022/06/03 00:41:36;;;;;;;3.28;2.28;;;18.10;99.90;;;;;;7396120;19;20480;-74
2022/06/03 00:44:46;;;;;;;3.65;2.30;;;17.90;99.90;;;;;;7394909;19;20153;-74
2022/06/03 00:47:38;;;;;;;4.20;2.25;;;18.10;99.90;;;;;;7395633;19;20156;-73
2022/06/03 00:50:29;;;;;;;2.90;2.17;;;18.30;99.90;;;;;;7393793;19;20139;-72
2022/06/03 00:53:06;;;;;;;2.83;2.40;;;18.50;99.90;;;;;;7395740;19;20135;-73
2022/06/03 00:55:32;;;;;;;2.75;2.00;;;18.10;99.90;;;;;;7394331;19;20138;-73
2022/06/03 00:58:38;;;;;;;4.75;2.42;;;18.00;99.90;;;;;;7396173;19;20130;-74
2022/06/03 01:01:04;;;;;;;4.22;2.10;;;18.20;99.90;;;;;;7394022;19;20154;-74
2022/06/03 01:04:04;;;;;;;4.40;2.35;;;18.30;99.90;;;;;;7393408;19;20164;-74
2022/06/03 01:07:07;;;;;;;3.83;2.50;;;18.30;99.90;;;;;;7393646;19;20134;-74
2022/06/03 01:10:02;;;;;;;2.28;1.92;;;18.20;99.90;;;;;;7393253;19;20225;-73
2022/06/03 01:12:39;;;;;;;5.22;2.50;;;18.20;99.90;;;;;;7394777;19;20155;-74
2022/06/03 01:15:09;;;;;;;2.58;2.13;;;18.30;99.90;;;;;;7393781;19;20142;-74
2022/06/03 01:17:52;;;;;;;4.20;2.30;;;18.20;99.90;;;;;;7393621;19;20158;-74
2022/06/03 01:20:38;;;;;;;3.00;2.05;;;18.10;99.90;;;;;;7394977;19;20138;-74
2022/06/03 01:23:44;;;;;;;3.10;2.20;;;17.90;99.90;;;;;;7395111;19;20135;-74
2022/06/03 01:26:33;;;;;;;1.98;1.80;;;18.00;99.90;;;;;;7389044;19;20157;-74
2022/06/03 01:29:29;;;;;;;2.67;2.00;;;18.00;99.90;;;;;;7394948;19;20142;-74
2022/06/03 01:32:26;;;;;;;4.38;2.28;;;18.00;99.90;;;;;;7391353;19;20471;-74
2022/06/03 01:34:52;;;;;;;4.68;2.13;;;18.00;99.90;;;;;;7392730;19;20142;-74
2022/06/03 01:37:51;;;;;;;2.47;2.22;;;17.90;99.90;;;;;;7391785;19;20149;-74
2022/06/03 01:40:48;;;;;;;4.03;2.05;;;18.00;99.90;;;;;;7391705;19;20174;-74
2022/06/03 01:43:35;;;;;;;2.53;2.00;;;17.70;99.90;;;;;;7392659;19;20173;-74
2022/06/03 01:46:07;;;;;;;3.88;2.25;;;17.50;99.90;;;;;;7394533;19;20468;-74
2022/06/03 01:48:57;;;;;;;2.70;2.05;;;17.80;99.90;;;;;;7391753;19;20594;-74
2022/06/03 01:51:40;;;;;;;2.15;1.92;;;17.70;99.90;;;;;;7387949;19;20145;-73
2022/06/03 01:54:36;;;;;;;2.25;1.80;;;17.80;99.90;;;;;;7393870;19;20142;-74
2022/06/03 01:57:44;;;;;;;3.00;2.42;;;18.00;99.90;;;;;;7391818;19;20492;-74
2022/06/03 02:00:24;;;;;;;1.90;1.80;;;18.20;99.90;;;;;;7390753;19;20194;-74
2022/06/03 02:03:05;;;;;;;3.47;2.20;;;18.30;99.90;;;;;;7389701;19;20602;-74
2022/06/03 02:05:50;;;;;;;3.47;2.10;;;17.80;99.90;;;;;;7391202;19;20160;-73
2022/06/03 02:08:37;;;;;;;3.10;1.95;;;17.60;99.90;;;;;;7392155;19;20143;-75
2022/06/03 02:11:09;;;;;;;3.30;2.05;;;17.60;99.90;;;;;;7393980;19;20126;-74
2022/06/03 02:14:16;;;;;;;3.55;2.20;;;17.90;99.90;;;;;;7392411;19;20139;-75
2022/06/03 02:17:04;;;;;;;2.42;2.03;;;17.80;99.90;;;;;;7388569;19;20157;-74
2022/06/03 02:19:52;;;;;;;3.08;2.00;;;17.70;99.90;;;;;;7388244;19;20164;-74
2022/06/03 02:22:56;;;;;;;2.30;1.90;;;17.40;99.90;;;;;;7393146;19;20134;-75
2022/06/03 02:25:53;;;;;;;3.42;1.98;;;17.20;99.90;;;;;;7382578;19;20144;-75
2022/06/03 02:28:19;;;;;;;2.65;2.33;;;17.00;99.90;;;;;;7389619;19;20150;-74
2022/06/03 02:31:07;;;;;;;2.35;2.00;;;17.20;99.90;;;;;;7393314;19;20167;-74
2022/06/03 02:33:50;;;;;;;3.97;2.15;;;17.30;99.90;;;;;;7387348;19;20158;-75
2022/06/03 02:36:22;;;;;;;3.20;2.10;;;17.80;99.90;;;;;;7391626;19;20142;-74
2022/06/03 02:39:33;;;;;;;3.88;2.20;;;17.80;99.90;;;;;;7390388;19;20134;-74
2022/06/03 02:42:46;;;;;;;3.80;2.03;;;17.70;99.90;;;;;;7391051;19;20151;-75
2022/06/03 02:45:53;;;;;;;2.55;2.08;;;17.70;99.90;;;;;;7382363;19;20501;-75
2022/06/03 02:48:54;;;;;;;2.88;2.20;;;17.80;99.90;;;;;;7392826;19;20725;-75
2022/06/03 02:51:38;;;;;;;3.00;2.17;;;18.10;99.90;;;;;;7389656;19;20158;-75
2022/06/03 02:54:28;;;;;;;3.15;2.15;;;18.20;99.90;;;;;;7390809;19;20709;-74
2022/06/03 02:57:00;;;;;;;3.08;1.98;;;18.10;99.90;;;;;;7392466;19;20138;-74
2022/06/03 02:59:51;;;;;;;2.92;2.03;;;18.00;99.90;;;;;;7385442;19;20173;-74
2022/06/03 03:02:36;;;;;;;2.78;2.17;;;17.70;99.90;;;;;;7390558;19;20225;-73
2022/06/03 03:05:24;;;;;;;2.38;2.17;;;17.60;99.90;;;;;;7388410;19;20174;-74
2022/06/03 03:07:53;;;;;;;2.67;2.40;;;17.70;99.90;;;;;;7388241;19;20142;-73
2022/06/03 03:10:56;;;;;;;4.50;2.00;;;17.70;99.90;;;;;;7391660;19;20152;-74
2022/06/03 03:13:49;;;;;;;2.25;1.83;;;17.80;99.90;;;;;;7390096;19;20240;-74
2022/06/03 03:16:41;;;;;;;3.42;2.25;;;17.60;99.90;;;;;;7387503;19;20142;-74
2022/06/03 03:19:18;;;;;;;3.70;1.92;;;17.80;99.90;;;;;;7385383;19;20135;-74
2022/06/03 03:22:15;;;;;;;3.63;2.10;;;17.50;99.90;;;;;;7389257;19;20142;-74
2022/06/03 03:24:57;;;;;;;3.25;2.28;;;17.40;99.90;;;;;;7388464;19;20166;-74
2022/06/03 03:28:00;;;;;;;2.45;2.10;;;17.60;99.90;;;;;;7387332;19;20155;-74
2022/06/03 03:30:36;;;;;;;2.67;1.90;;;17.40;99.90;;;;;;7390816;19;20130;-74
2022/06/03 03:33:23;;;;;;;2.10;1.88;;;17.60;99.90;;;;;;7390318;19;20181;-74
2022/06/03 03:35:59;;;;;;;2.25;2.05;;;17.70;99.90;;;;;;7387879;19;20298;-75
2022/06/03 03:38:47;;;;;;;3.15;2.38;;;17.80;99.90;;;;;;7389098;19;20727;-74
2022/06/03 03:41:36;;;;;;;4.20;2.05;;;17.90;99.90;;;;;;7387533;19;20158;-75
2022/06/03 03:44:20;;;;;;;2.75;2.20;;;17.90;99.90;;;;;;7386582;19;20150;-74
2022/06/03 03:47:33;;;;;;;3.40;2.08;;;17.70;99.90;;;;;;7389726;19;20506;-75
2022/06/03 03:50:07;;;;;;;3.20;2.10;;;17.70;99.90;;;;;;7386252;19;20163;-75
2022/06/03 03:52:36;;;;;;;3.60;2.00;;;17.30;99.90;;;;;;7387008;19;20144;-74
2022/06/03 03:55:20;;;;;;;3.20;2.10;;;17.20;99.90;;;;;;7387146;19;20151;-75
2022/06/03 03:58:31;;;;;;;2.17;1.85;;;17.50;99.90;;;;;;7388150;19;20146;-75
2022/06/03 04:01:00;;;;;;;2.28;2.05;;;17.20;99.90;;;;;;7389320;19;20596;-74
2022/06/03 04:03:25;;;;;;;2.40;2.00;;;17.00;99.90;;;;;;7385263;19;20174;-74
2022/06/03 04:06:21;;;;;;;2.65;2.22;;;17.10;99.90;;;;;;7389073;19;20507;-74
2022/06/03 04:08:53;;;;;;;2.72;2.30;;;17.30;99.90;;;;;;7387889;19;20134;-74
2022/06/03 04:11:25;;;;;;;2.92;2.10;;;17.00;99.90;;;;;;7387099;19;20642;-75
2022/06/03 04:14:22;;;;;;;1.85;1.75;;;17.20;99.90;;;;;;7382876;19;20523;-74
2022/06/03 04:17:27;;;;;;;4.15;2.05;;;16.90;99.90;;;;;;7393116;19;20177;-73
2022/06/03 04:19:52;;;;;;;2.35;2.13;;;16.90;99.90;;;;;;7394063;19;20149;-74
2022/06/03 04:22:24;;;;;;;2.63;2.10;;;17.30;99.90;;;;;;7394020;19;20150;-74
2022/06/03 04:25:27;;;;;;;4.25;2.40;;;17.60;99.90;;;;;;7393668;19;20152;-74
2022/06/03 04:28:05;;;;;;;3.08;2.08;;;17.50;99.90;;;;;;7393265;19;20145;-75
2022/06/03 04:30:30;;;;;;;2.42;2.22;;;17.50;99.90;;;;;;7394954;19;20138;-75
2022/06/03 04:33:05;;;;;;;4.20;2.53;;;17.60;99.90;;;;;;7396652;19;20159;-74
2022/06/03 04:35:53;;;;;;;3.45;2.50;;;17.70;99.90;;;;;;7395507;19;20168;-75
2022/06/03 04:38:22;;;;;;;5.00;2.70;;;17.90;99.90;;;;;;7393197;19;20147;-74
2022/06/03 04:41:23;;;;;;;2.70;2.50;;;18.10;99.90;;;;;;7395347;19;20594;-75
2022/06/03 04:44:10;;;;;;;2.60;2.40;;;18.00;99.90;;;;;;7395042;19;20591;-75
2022/06/03 04:46:55;;;;;;;4.20;2.70;;;18.00;99.90;;;;;;7391055;19;20130;-74
2022/06/03 04:49:23;;;;;;;3.40;2.75;;;18.10;99.90;;;;;;7394666;19;20139;-75
2022/06/03 04:52:26;;;;;;;3.42;2.63;;;17.90;99.90;;;;;;7394830;19;20146;-75
2022/06/03 04:55:23;;;;;;;3.30;2.60;;;17.80;99.90;;;;;;7396211;19;20145;-75
2022/06/03 04:58:07;;;;;;;4.15;2.67;;;17.90;99.90;;;;;;7393042;19;20624;-75
2022/06/03 05:01:10;;;;;;;3.63;2.53;;;18.10;99.90;;;;;;7391691;19;20474;-74
2022/06/03 05:03:58;;;;;;;3.72;2.65;;;17.90;99.90;;;;;;7388148;19;20194;-74
2022/06/03 05:06:30;;;;;;;5.28;4.28;;;18.00;99.90;;;;;;7390590;19;20150;-74
2022/06/03 05:09:33;;;;;;;5.05;3.28;;;18.00;99.90;;;;;;7386674;19;20495;-74
2022/06/03 05:12:08;;;;;;;3.20;2.90;;;17.80;99.90;;;;;;7389125;19;20175;-73
2022/06/03 05:15:09;;;;;;;3.25;2.88;;;18.10;99.90;;;;;;7388938;19;20713;-75
2022/06/03 05:18:09;;;;;;;4.43;3.20;;;18.20;99.90;;;;;;7389890;19;20415;-72
2022/06/03 05:20:35;;;;;;;4.43;2.92;;;18.30;99.90;;;;;;7389823;19;20471;-74
2022/06/03 05:23:38;;;;;;;4.53;3.28;;;18.50;99.90;;;;;;7387597;19;20465;-72
2022/06/03 05:26:06;;;;;;;7.47;4.13;;;18.60;99.90;;;;;;7390237;19;20392;-72
2022/06/03 05:28:35;;;;;;;6.82;4.00;;;18.60;99.90;;;;;;7391587;19;20487;-71
2022/06/03 05:31:40;;;;;;;6.55;4.03;;;18.60;99.90;;;;;;7392670;19;20166;-73
2022/06/03 05:34:47;;;;;;;4.53;3.63;;;18.60;99.90;;;;;;7389707;19;20155;-73
2022/06/03 05:37:37;;;;;;;5.18;3.50;;;18.60;99.90;;;;;;7393751;19;20166;-74
2022/06/03 05:40:12;;;;;;;6.13;4.28;;;18.60;99.90;;;;;;7392861;19;20151;-75
2022/06/03 05:43:04;;;;;;;6.18;3.70;;;18.80;99.90;;;;;;7392461;19;20130;-72
2022/06/03 05:45:38;;;;;;;5.90;4.53;;;18.70;99.90;;;;;;7389755;19;20157;-75
2022/06/03 05:48:33;;;;;;;6.03;4.68;;;18.70;99.90;;;;;;7391347;19;20172;-72
2022/06/03 05:51:23;;;;;;;5.00;4.20;;;18.70;99.90;;;;;;7392501;19;20151;-72
2022/06/03 05:53:55;;;;;;;5.88;4.22;;;18.90;99.90;;;;;;7391789;19;20138;-72
2022/06/03 05:56:26;;;;;;;6.70;4.40;;;19.00;99.90;;;;;;7391582;19;20820;-71
2022/06/03 05:59:12;;;;;;;4.03;3.63;;;19.00;99.90;;;;;;7390269;19;20615;-71
2022/06/03 06:01:44;;;;;;;6.53;3.85;;;19.00;99.90;;;;;;7394432;19;20153;-72
2022/06/03 06:04:14;;;;;;;4.25;3.65;;;18.90;99.90;;;;;;7392536;19;20490;-75
2022/06/03 06:07:24;;;;;;;4.53;3.35;;;19.00;99.90;;;;;;7392620;19;20657;-74
2022/06/03 06:10:05;;;;;;;3.78;3.15;;;19.10;99.90;;;;;;7386842;19;20470;-72
2022/06/03 06:13:14;;;;;;;3.75;3.08;;;19.40;99.90;;;;;;7389410;19;20166;-75
2022/06/03 06:15:59;;;;;;;4.45;3.30;;;19.80;99.90;;;;;;7390006;19;20174;-71
2022/06/03 06:18:28;;;;;;;3.28;2.97;;;20.50;99.90;;;;;;7386940;19;20179;-72
2022/06/03 06:21:09;;;;;;;4.32;3.45;;;21.60;99.90;;;;;;7390862;19;20158;-72
2022/06/03 06:23:47;;;;;;;3.95;2.88;;;22.50;99.90;;;;;;7387538;19;20531;-75
2022/06/03 06:26:12;;;;;;;4.65;2.95;;;23.20;99.90;;;;;;7389781;19;20226;-72
2022/06/03 06:29:06;;;;;;;4.57;2.88;;;23.30;99.90;;;;;;7389429;19;20151;-72
2022/06/03 06:32:47;;;;;;;3.13;2.83;;;23.20;99.90;;;;;;7391594;19;20153;-72
2022/06/03 06:35:31;;;;;;;3.22;2.92;;;23.30;99.90;;;;;;7389194;19;20150;-76
2022/06/03 06:38:27;;;;;;;7.90;2.90;;;23.70;99.90;;;;;;7384618;19;20168;-74
2022/06/03 06:41:04;;;;;;;6.32;3.33;;;23.80;99.90;;;;;;7387433;19;20139;-75
2022/06/03 06:43:37;;;;;;;4.75;3.45;;;23.70;99.90;;;;;;7388548;19;20210;-72
2022/06/03 06:46:32;;;;;;;3.70;2.97;;;23.70;99.90;;;;;;7387421;19;20205;-75
2022/06/03 06:49:05;;;;;;;5.45;3.17;;;23.90;99.90;;;;;;7386753;19;20139;-72
2022/06/03 06:51:54;;;;;;;5.25;3.00;;;24.20;99.90;;;;;;7389154;19;20226;-75
2022/06/03 06:54:37;;;;;;;5.18;2.75;;;24.50;99.90;;;;;;7390288;19;20622;-74
2022/06/03 06:57:16;;;;;;;5.15;2.97;;;24.80;99.90;;;;;;7387970;19;20135;-74
2022/06/03 07:00:04;;;;;;;3.88;3.47;;;25.00;99.90;;;;;;7392476;19;20166;-74
2022/06/03 07:02:42;;;;;;;6.60;3.90;;;25.10;99.90;;;;;;7384962;19;20134;-71
2022/06/03 07:05:14;;;;;;;4.13;3.28;;;25.30;99.90;;;;;;7385956;19;20150;-72
2022/06/03 07:08:06;;;;;;;6.95;3.78;;;25.50;99.90;;;;;;7388668;19;20139;-72
2022/06/03 07:10:59;;;;;;;4.20;3.30;;;25.90;99.90;;;;;;7388372;19;20135;-71
2022/06/03 07:13:42;;;;;;;4.18;2.83;;;25.80;99.90;;;;;;7388217;19;20131;-73
2022/06/03 07:19:50;;;;;;;3.60;3.30;;;25.70;99.90;;;;;;7386306;19;20501;-72
2022/06/03 07:22:42;;;;;;;4.22;3.10;;;26.50;99.80;;;;;;7388682;19;20135;-74
2022/06/03 07:25:42;;;;;;;8.73;3.13;;;26.50;99.60;;;;;;7388159;19;20133;-74
2022/06/03 07:28:35;;;;;;;6.68;3.60;;;26.40;99.60;;;;;;7386047;19;20162;-74
2022/06/03 07:31:12;;;;;;;5.57;3.25;;;26.50;99.50;;;;;;7387127;19;20481;-75
2022/06/03 07:33:58;;;;;;;3.35;2.88;;;26.80;99.50;;;;;;7387837;19;20137;-72
2022/06/03 07:36:32;;;;;;;3.75;3.05;;;27.00;99.20;;;;;;7386147;19;20131;-75
2022/06/03 07:39:04;;;;;;;3.42;2.90;;;27.30;99.00;;;;;;7387886;19;20130;-75
2022/06/03 07:42:04;;;;;;;5.93;3.05;;;27.60;98.90;;;;;;7388361;19;20154;-76
2022/06/03 07:44:44;;;;;;;9.95;3.28;;;27.40;98.80;;;;;;7386101;19;20169;-75
2022/06/03 07:47:11;;;;;;;7.05;2.70;;;27.70;98.40;;;;;;7386667;19;20153;-72
2022/06/03 07:49:38;;;;;;;3.40;2.58;;;27.90;97.50;;;;;;7381619;19;20138;-75
2022/06/03 07:52:12;;;;;;;4.07;2.70;;;27.40;97.70;;;;;;7389190;19;20134;-72
2022/06/03 07:54:50;;;;;;;3.42;2.22;;;26.90;98.30;;;;;;7397901;19;20209;-74
2022/06/03 07:57:22;;;;;;;2.85;2.42;;;26.80;98.50;;;;;;7385792;19;20131;-75
2022/06/03 07:59:49;;;;;;;3.00;2.70;;;26.40;98.80;;;;;;7390567;19;20665;-75
2022/06/03 08:02:20;;;;;;;3.15;2.58;;;26.30;99.00;;;;;;7388153;19;20139;-72
2022/06/03 08:04:48;;;;;;;3.42;2.60;;;26.20;99.20;;;;;;7384087;19;20630;-72
2022/06/03 08:13:00;;;;;;;3.83;2.22;;;26.70;98.80;;;;;;7386679;19;20516;-75
2022/06/03 08:15:43;;;;;;;3.80;2.30;;;26.80;98.90;;;;;;7385231;19;20602;-74
2022/06/03 08:18:16;;;;;;;3.63;2.70;;;26.80;99.00;;;;;;7382394;19;20586;-72
2022/06/03 08:20:48;;;;;;;3.30;2.50;;;27.10;98.60;;;;;;7383388;19;20553;-71
2022/06/03 08:23:17;;;;;;;9.05;3.60;;;27.30;98.40;;;;;;7388103;19;20570;-72
2022/06/03 08:25:45;;;;;;;3.97;2.55;;;27.40;98.10;;;;;;7392705;19;20142;-72
2022/06/03 08:28:17;;;;;;;7.32;2.45;;;27.50;98.10;;;;;;7387215;19;20836;-71
2022/06/03 08:30:46;;;;;;;4.95;2.53;;;27.90;97.70;;;;;;7386170;19;20175;-74
2022/06/03 08:33:14;;;;;;;3.38;2.45;;;28.00;98.20;;;;;;7386188;19;20385;-73
2022/06/03 08:35:46;;;;;;;4.40;2.22;;;28.40;97.00;;;;;;7388492;19;20138;-73
2022/06/03 08:38:23;;;;;;;2.63;2.00;;;28.10;97.40;;;;;;7384747;19;20613;-73
2022/06/03 08:41:13;;;;;;;3.08;2.30;;;27.90;97.70;;;;;;7382593;19;20211;-73
2022/06/03 08:44:24;;;;;;;7.35;2.25;;;28.10;97.10;;;;;;7382953;19;20569;-75
2022/06/03 08:47:09;;;;;;;5.15;2.28;;;28.40;96.80;;;;;;7383785;19;20162;-72
2022/06/03 08:49:59;;;;;;;4.93;2.50;;;28.10;96.80;;;;;;7386214;19;20151;-74
2022/06/03 08:52:34;;;;;;;4.95;2.28;;;27.90;97.00;;;;;;7387757;19;20502;-75
2022/06/03 08:55:21;;;;;;;2.70;2.20;;;27.60;97.20;;;;;;7384695;19;20138;-74
2022/06/03 08:57:53;;;;;;;3.08;2.40;;;27.40;97.50;;;;;;7385959;19;20169;-73
2022/06/03 09:00:24;;;;;;;2.58;2.35;;;27.50;97.20;;;;;;7386663;19;20640;-72
2022/06/03 09:03:21;;;;;;;2.70;2.50;;;27.40;97.40;;;;;;7394005;19;20478;-74
2022/06/03 09:05:57;;;;;;;3.35;2.65;;;27.40;97.60;;;;;;7387883;19;20656;-72
2022/06/03 09:08:45;;;;;;;2.15;1.70;;;27.40;97.10;;;;;;7393319;19;20138;-75
2022/06/03 09:11:25;;;;;;;2.45;2.20;;;27.00;97.40;;;;;;7402064;19;20130;-74
2022/06/03 09:14:00;;;;;;;3.22;1.60;;;26.90;97.80;;;;;;7393180;19;20142;-70
2022/06/03 09:16:28;;;;;;;4.45;2.90;;;27.10;98.50;;;;;;7391703;19;20584;-71
2022/06/03 09:19:04;;;;;;;2.40;2.20;;;27.40;97.50;;;;;;7391257;19;20149;-74
2022/06/03 09:21:33;;;;;;;3.50;2.35;;;27.50;97.80;;;;;;7392639;19;20210;-74
2022/06/03 09:24:10;;;;;;;3.17;2.50;;;27.30;97.50;;;;;;7388698;19;20151;-74
2022/06/03 09:26:40;;;;;;;2.70;2.35;;;27.20;98.00;;;;;;7391292;19;20597;-72
2022/06/03 09:29:10;;;;;;;3.40;2.53;;;27.00;98.10;;;;;;7391409;19;20531;-73
2022/06/03 09:31:37;;;;;;;3.20;2.30;;;27.00;98.50;;;;;;7392540;19;20158;-73
2022/06/03 09:34:07;;;;;;;6.53;2.95;;;27.00;98.50;;;;;;7395670;19;20139;-74
2022/06/03 09:36:33;;;;;;;5.20;2.45;;;27.30;98.40;;;;;;7393094;19;20126;-75
2022/06/03 09:39:09;;;;;;;4.63;2.33;;;27.30;98.10;;;;;;7389861;19;20152;-73
2022/06/03 09:41:39;;;;;;;5.25;3.85;;;27.20;98.50;;;;;;7385533;19;20506;-75
2022/06/03 09:44:06;;;;;;;4.22;3.10;;;27.30;99.00;;;;;;7390232;19;20137;-74
2022/06/03 09:46:36;;;;;;;3.50;3.20;;;27.50;98.90;;;;;;7391141;19;20157;-75
2022/06/03 09:49:05;;;;;;;2.70;2.40;;;28.00;98.40;;;;;;7390905;19;20640;-75
2022/06/03 09:51:57;;;;;;;2.47;2.28;;;28.00;98.00;;;;;;7394306;19;20146;-75
2022/06/03 09:54:39;;;;;;;2.88;2.33;;;28.10;97.80;;;;;;7388932;19;20139;-72
2022/06/03 09:57:05;;;;;;;3.85;2.63;;;27.90;97.80;;;;;;7390231;19;20606;-75
2022/06/03 09:59:35;;;;;;;3.83;2.80;;;27.40;98.50;;;;;;7392101;19;20147;-72
2022/06/03 10:02:01;;;;;;;3.72;2.85;;;27.30;99.10;;;;;;7388755;19;20131;-75
2022/06/03 10:04:26;;;;;;;2.47;2.28;;;27.60;99.00;;;;;;7387833;19;20205;-75
2022/06/03 10:06:53;;;;;;;5.65;3.50;;;27.70;98.50;;;;;;7389755;19;20145;-74
2022/06/03 10:17:47;;;;;;;2.47;2.08;;;27.80;99.00;;;;;;7387670;19;20652;-72
2022/06/03 10:20:13;;;;;;;2.65;2.10;;;28.20;97.20;;;;;;7390330;19;20529;-71
2022/06/03 10:22:40;;;;;;;3.42;2.50;;;27.80;97.30;;;;;;7388961;19;20172;-74
2022/06/03 10:25:07;;;;;;;2.30;2.10;;;27.60;97.50;;;;;;7389418;19;20171;-74
2022/06/03 10:27:34;;;;;;;2.85;2.53;;;27.40;98.10;;;;;;7389236;19;20142;-74
2022/06/03 10:30:05;;;;;;;2.33;2.13;;;27.30;98.30;;;;;;7387956;19;20631;-71
2022/06/03 10:32:32;;;;;;;2.83;2.00;;;27.40;98.40;;;;;;7388343;19;20141;-71
2022/06/03 10:35:14;;;;;;;2.83;2.60;;;27.40;98.20;;;;;;7390695;19;20170;-72
2022/06/03 10:37:55;;;;;;;2.17;1.98;;;27.30;97.40;;;;;;7390750;19;20139;-71
2022/06/03 10:40:26;;;;;;;2.80;2.00;;;27.20;97.40;;;;;;7396535;19;20495;-76
2022/06/03 10:42:55;;;;;;;4.65;2.83;;;27.10;98.50;;;;;;7391284;19;20143;-72
2022/06/03 10:45:36;;;;;;;3.85;3.22;;;27.40;97.80;;;;;;7388289;19;20160;-75
2022/06/03 10:48:19;;;;;;;3.72;3.00;;;27.50;97.80;;;;;;7392067;19;20194;-75
2022/06/03 10:50:45;;;;;;;3.55;2.80;;;27.60;97.10;;;;;;7389048;19;20146;-74
2022/06/03 11:01:58;;;;;;;5.28;3.47;;;27.70;97.10;;;;;;7388352;19;20171;-74
2022/06/03 11:04:30;;;;;;;3.05;2.65;;;27.80;96.90;;;;;;7389328;19;20150;-75
2022/06/03 11:06:59;;;;;;;3.75;2.75;;;27.90;97.00;;;;;;7387425;19;20150;-71
2022/06/03 11:09:25;;;;;;;1.95;1.67;;;27.90;97.20;;;;;;7386993;19;20631;-75
2022/06/03 11:11:58;;;;;;;3.92;2.42;;;27.70;96.60;;;;;;7389322;19;20123;-75
2022/06/03 11:14:26;;;;;;;4.57;2.55;;;27.50;96.60;;;;;;7388133;19;20143;-74
2022/06/03 11:17:16;;;;;;;2.28;2.00;;;27.30;96.80;;;;;;7389435;19;20154;-71
2022/06/03 11:19:54;;;;;;;3.85;2.88;;;27.10;96.90;;;;;;7390488;19;20151;-74
2022/06/03 11:22:28;;;;;;;2.80;2.50;;;27.00;97.50;;;;;;7389786;19;20138;-75
2022/06/03 11:25:05;;;;;;;5.57;4.40;;;26.80;97.50;;;;;;7383074;19;20174;-75
2022/06/03 11:27:39;;;;;;;3.40;2.05;;;26.80;97.60;;;;;;7388370;19;20137;-71
2022/06/03 11:30:27;;;;;;;3.70;2.00;;;26.80;97.50;;;;;;7388806;19;20135;-72
2022/06/03 11:32:59;;;;;;;2.58;2.20;;;26.80;97.60;;;;;;7386305;19;20158;-71
2022/06/03 11:35:56;;;;;;;2.55;2.20;;;26.60;97.60;;;;;;7390691;19;20157;-72
2022/06/03 11:38:43;;;;;;;4.07;2.42;;;26.60;97.80;;;;;;7385894;19;20150;-75
2022/06/03 11:41:24;;;;;;;2.00;1.80;;;26.50;97.70;;;;;;7387680;19;20614;-71
2022/06/03 11:43:57;;;;;;;2.47;2.17;;;26.50;97.90;;;;;;7386597;19;20649;-72
2022/06/03 11:46:31;;;;;;;2.42;2.08;;;26.50;98.10;;;;;;7390246;19;20167;-74
2022/06/03 11:48:57;;;;;;;4.68;2.38;;;26.30;98.30;;;;;;7388935;19;20138;-72
2022/06/03 11:51:25;;;;;;;2.30;2.10;;;26.30;98.50;;;;;;7388758;19;20133;-72
2022/06/03 11:53:52;;;;;;;2.97;2.30;;;26.30;99.50;;;;;;7388526;19;20141;-76
2022/06/03 11:56:25;;;;;;;2.83;2.03;;;26.10;99.90;;;;;;7389698;19;20603;-71
2022/06/03 11:59:12;;;;;;;3.42;2.22;;;26.00;99.90;;;;;;7388656;19;20594;-72
2022/06/03 12:01:49;;;;;;;2.50;2.00;;;25.90;99.90;;;;;;7390446;19;20134;-76
2022/06/03 12:04:31;;;;;;;2.17;1.98;;;25.90;99.90;;;;;;7387562;19;20193;-75
2022/06/03 12:07:24;;;;;;;3.47;2.30;;;25.90;99.90;;;;;;7384407;19;20166;-75
2022/06/03 12:09:59;;;;;;;3.20;2.03;;;25.90;99.90;;;;;;7385710;19;20141;-70
2022/06/03 12:16:02;;;;;;;3.15;2.30;;;26.00;99.90;;;;;;7386442;19;20162;-71
2022/06/03 12:18:39;;;;;;;3.28;2.40;;;25.90;99.90;;;;;;7385116;19;20158;-75
2022/06/03 12:21:34;;;;;;;7.97;2.40;;;25.90;99.90;;;;;;7387360;19;20141;-75
2022/06/03 12:24:31;;;;;;;4.30;2.33;;;26.00;99.90;;;;;;7380565;19;20159;-75
2022/06/03 12:27:01;;;;;;;2.15;1.80;;;26.00;99.90;;;;;;7387444;19;20134;-71
2022/06/03 12:29:41;;;;;;;3.28;2.45;;;26.00;99.90;;;;;;7389392;19;20142;-72
2022/06/03 12:32:21;;;;;;;3.90;2.30;;;26.00;99.90;;;;;;7387282;19;20127;-73
2022/06/03 12:34:47;;;;;;;3.20;2.70;;;26.10;99.90;;;;;;7388771;19;20135;-75
2022/06/03 12:37:28;;;;;;;3.40;2.72;;;26.00;99.90;;;;;;7389462;19;20185;-74
2022/06/03 12:40:19;;;;;;;3.00;2.70;;;25.90;99.90;;;;;;7395182;19;20593;-75
2022/06/03 12:42:45;;;;;;;2.70;2.50;;;25.90;99.90;;;;;;7393825;19;20155;-72
2022/06/03 12:45:13;;;;;;;4.65;2.72;;;26.00;99.90;;;;;;7388263;19;20148;-72
2022/06/03 12:47:49;;;;;;;3.53;2.83;;;25.90;99.90;;;;;;7392275;19;20133;-72
2022/06/03 12:50:26;;;;;;;4.43;2.88;;;25.80;99.90;;;;;;7392329;19;20158;-71
2022/06/03 12:53:21;;;;;;;4.03;2.80;;;25.80;99.90;;;;;;7391062;19;20126;-75
2022/06/03 12:55:57;;;;;;;3.78;2.88;;;25.80;99.90;;;;;;7391509;19;20146;-72
2022/06/03 12:58:46;;;;;;;3.22;2.90;;;25.80;99.90;;;;;;7397939;19;20145;-71
2022/06/03 13:01:12;;;;;;;3.17;2.88;;;25.90;99.90;;;;;;7391169;19;20154;-75
2022/06/03 13:03:41;;;;;;;3.25;2.67;;;25.80;99.90;;;;;;7391231;19;20158;-75
2022/06/03 13:06:09;;;;;;;4.85;2.95;;;25.70;99.90;;;;;;7391497;19;20127;-71
2022/06/03 13:08:34;;;;;;;3.50;2.35;;;25.70;99.90;;;;;;7391859;19;20147;-71
2022/06/03 13:11:20;;;;;;;3.85;2.30;;;25.70;99.90;;;;;;7390723;19;20150;-75
2022/06/03 13:13:58;;;;;;;4.07;2.13;;;25.70;99.90;;;;;;7392062;19;20163;-76
2022/06/03 13:16:31;;;;;;;4.07;2.70;;;25.60;99.90;;;;;;7392320;19;20159;-72
2022/06/03 13:19:01;;;;;;;3.42;3.00;;;25.60;99.90;;;;;;7391344;19;20158;-71
2022/06/03 13:22:00;;;;;;;4.20;3.05;;;25.70;99.90;;;;;;7392186;19;20155;-73
2022/06/03 13:24:30;;;;;;;4.70;3.22;;;25.80;99.90;;;;;;7380934;19;20558;-75
2022/06/03 13:27:08;;;;;;;3.20;2.78;;;25.80;99.90;;;;;;7388159;19;20162;-73
2022/06/03 13:29:49;;;;;;;3.30;2.50;;;25.70;99.90;;;;;;7395107;19;20237;-71
2022/06/03 13:32:33;;;;;;;5.65;2.75;;;25.60;99.90;;;;;;7393737;19;20165;-71
2022/06/03 13:35:20;;;;;;;4.03;2.90;;;25.50;99.90;;;;;;7394554;19;20153;-71
2022/06/03 13:37:53;;;;;;;2.70;2.30;;;25.40;99.90;;;;;;7392591;19;20146;-74
2022/06/03 13:40:27;;;;;;;3.40;2.78;;;25.40;99.90;;;;;;7392571;19;20147;-71
2022/06/03 13:42:59;;;;;;;3.80;2.53;;;25.20;99.90;;;;;;7391588;19;20137;-74
2022/06/03 13:45:44;;;;;;;3.47;2.30;;;25.10;99.90;;;;;;7385691;19;20153;-74
2022/06/03 13:48:33;;;;;;;2.95;2.20;;;25.10;99.90;;;;;;7385537;19;20138;-75
2022/06/03 13:51:26;;;;;;;3.67;2.30;;;25.10;99.90;;;;;;7386822;19;20178;-75
2022/06/03 13:53:56;;;;;;;3.17;2.88;;;25.20;99.90;;;;;;7388954;19;20479;-73
2022/06/03 13:56:26;;;;;;;2.50;2.30;;;25.30;99.90;;;;;;7390230;19;20134;-74
2022/06/03 13:58:52;;;;;;;3.50;2.92;;;25.30;99.90;;;;;;7388609;19;20131;-72
2022/06/03 14:01:32;;;;;;;3.50;2.97;;;25.50;99.90;;;;;;7391329;19;20115;-72
2022/06/03 14:04:03;;;;;;;3.47;3.10;;;25.40;99.90;;;;;;7389386;19;20170;-74
2022/06/03 14:06:37;;;;;;;5.32;2.45;;;25.30;99.90;;;;;;7394231;19;20496;-73
2022/06/03 14:09:22;;;;;;;3.80;2.13;;;25.20;99.90;;;;;;7390625;19;20135;-74
2022/06/03 14:11:55;;;;;;;4.72;3.92;;;25.30;99.90;;;;;;7392129;19;20190;-72
2022/06/03 14:14:27;;;;;;;6.20;3.30;;;25.50;99.90;;;;;;7390481;19;20143;-74
2022/06/03 14:17:01;;;;;;;3.92;2.60;;;25.50;99.90;;;;;;7390685;19;20155;-74
2022/06/03 14:19:51;;;;;;;4.78;2.90;;;25.30;99.90;;;;;;7390059;19;20182;-75
2022/06/03 14:22:23;;;;;;;3.85;3.25;;;25.20;99.90;;;;;;7389824;19;20159;-74
2022/06/03 14:25:36;;;;;;;4.40;2.47;;;25.30;99.90;;;;;;7385761;19;20150;-74
2022/06/03 14:28:05;;;;;;;3.67;2.40;;;25.20;99.90;;;;;;7390671;19;20161;-74
2022/06/03 14:30:45;;;;;;;3.67;2.22;;;25.00;99.90;;;;;;7388105;19;20138;-72